createdAt,value
2019-03-10T00:02:41.236Z,0.77
2019-03-10T00:05:41.667Z,1.00
2019-03-10T00:08:42.486Z,1.00
2019-03-10T00:11:43.471Z,1.00
2019-03-10T00:14:43.732Z,0.90
2019-03-10T00:17:44.953Z,0.90
2019-03-10T00:20:45.850Z,0.80
2019-03-10T00:23:46.210Z,1.07
2019-03-10T00:26:47.442Z,0.83
2019-03-10T00:29:47.964Z,0.60
2019-03-10T00:32:48.719Z,0.80
2019-03-10T00:35:49.370Z,0.90
2019-03-10T00:38:50.152Z,0.83
2019-03-10T00:41:50.470Z,1.00
2019-03-10T00:44:50.807Z,0.80
2019-03-10T00:47:51.537Z,0.80
2019-03-10T00:50:52.762Z,1.23
2019-03-10T00:53:53.886Z,1.13
2019-03-10T00:56:54.297Z,0.90
2019-03-10T00:59:55.446Z,0.70
2019-03-10T01:02:44.431Z,0.83
2019-03-10T01:05:52.337Z,0.70
2019-03-10T01:08:53.583Z,0.80
2019-03-10T01:11:53.993Z,1.00
2019-03-10T01:14:54.684Z,0.70
2019-03-10T01:17:55.342Z,0.77
2019-03-10T01:20:55.782Z,0.80
2019-03-10T01:23:56.185Z,0.90
2019-03-10T01:26:56.935Z,0.83
2019-03-10T01:29:57.265Z,0.87
2019-03-10T01:32:58.008Z,1.00
2019-03-10T01:35:46.725Z,0.93
2019-03-10T01:42:02.191Z,0.70
2019-03-10T01:45:02.999Z,0.87
2019-03-10T01:48:03.453Z,0.70
2019-03-10T01:51:03.842Z,0.90
2019-03-10T01:54:04.658Z,0.83
2019-03-10T01:57:05.751Z,0.93
2019-03-10T02:00:06.666Z,0.70
2019-03-10T02:03:07.125Z,0.50
2019-03-10T02:06:07.527Z,0.50
2019-03-10T02:09:07.830Z,0.57
2019-03-10T02:12:08.455Z,0.67
2019-03-10T02:15:09.015Z,0.50
2019-03-10T02:18:09.407Z,0.40
2019-03-10T02:21:10.163Z,0.40
2019-03-10T02:24:11.590Z,0.60
2019-03-10T02:27:12.201Z,0.43
2019-03-10T02:30:12.660Z,0.43
2019-03-10T02:33:13.341Z,0.30
2019-03-10T02:36:13.702Z,0.30
2019-03-10T02:39:14.073Z,0.57
2019-03-10T02:42:14.717Z,0.40
2019-03-10T02:45:15.253Z,0.40
2019-03-10T02:48:15.612Z,0.60
2019-03-10T02:51:16.106Z,0.60
2019-03-10T02:54:16.771Z,0.60
2019-03-10T02:57:17.089Z,0.60
2019-03-10T03:00:18.319Z,0.40
2019-03-10T03:03:18.638Z,0.63
2019-03-10T03:06:18.938Z,0.70
2019-03-10T03:09:19.941Z,0.50
2019-03-10T03:12:20.312Z,0.57
2019-03-10T03:15:21.443Z,0.50
2019-03-10T03:18:22.361Z,0.50
2019-03-10T03:21:22.646Z,0.60
2019-03-10T03:24:23.482Z,0.70
2019-03-10T03:27:23.919Z,0.60
2019-03-10T03:30:24.335Z,0.53
2019-03-10T03:33:24.755Z,0.50
2019-03-10T03:36:25.439Z,0.50
2019-03-10T03:39:26.624Z,0.43
2019-03-10T03:42:27.031Z,0.47
2019-03-10T03:45:27.363Z,0.30
2019-03-10T03:48:28.296Z,0.57
2019-03-10T03:51:29.535Z,0.50
2019-03-10T03:54:30.310Z,0.50
2019-03-10T03:57:30.636Z,0.33
2019-03-10T04:00:31.315Z,0.30
2019-03-10T04:03:32.206Z,0.50
2019-03-10T04:06:33.151Z,0.40
2019-03-10T04:09:33.641Z,0.50
2019-03-10T04:12:34.145Z,0.50
2019-03-10T04:15:35.336Z,0.60
2019-03-10T04:18:35.611Z,0.63
2019-03-10T04:21:35.954Z,0.47
2019-03-10T04:24:36.446Z,0.90
2019-03-10T04:27:37.126Z,0.80
2019-03-10T04:30:37.343Z,0.60
2019-03-10T04:33:37.670Z,0.80
2019-03-10T04:36:38.241Z,0.73
2019-03-10T04:39:38.573Z,0.73
2019-03-10T04:42:39.241Z,0.80
2019-03-10T04:45:40.387Z,0.70
2019-03-10T04:48:40.969Z,0.57
2019-03-10T04:51:41.659Z,0.50
2019-03-10T04:55:02.194Z,0.60
2019-03-10T05:01:29.808Z,0.50
2019-03-10T05:04:31.698Z,0.40
2019-03-10T05:07:32.405Z,0.30
2019-03-10T05:10:32.641Z,0.30
2019-03-10T05:13:34.039Z,0.40
2019-03-10T05:16:34.653Z,0.27
2019-03-10T05:19:35.889Z,0.10
2019-03-10T05:22:37.281Z,0.20
2019-03-10T05:25:38.102Z,0.20
2019-03-10T05:28:38.552Z,0.10
2019-03-10T05:31:38.910Z,0.20
2019-03-10T05:34:39.494Z,0.20
2019-03-10T05:37:40.381Z,0.10
2019-03-10T05:40:40.752Z,0.20
2019-03-10T05:43:41.117Z,0.23
2019-03-10T05:46:42.328Z,0.20
2019-03-10T05:49:42.722Z,0.47
2019-03-10T05:52:43.699Z,0.30
2019-03-10T05:55:43.959Z,0.10
2019-03-10T05:58:44.829Z,0.20
2019-03-10T06:01:45.925Z,0.20
2019-03-10T06:04:46.514Z,0.20
2019-03-10T06:07:47.676Z,0.70
2019-03-10T06:10:48.669Z,0.17
2019-03-10T06:13:49.718Z,0.10
2019-03-10T06:16:50.318Z,0.17
2019-03-10T06:19:50.925Z,0.20
2019-03-10T06:22:51.412Z,0.20
2019-03-10T06:25:52.550Z,0.20
2019-03-10T06:28:52.806Z,0.20
2019-03-10T06:31:53.098Z,0.10
2019-03-10T06:34:53.566Z,0.20
2019-03-10T06:37:54.199Z,0.20
2019-03-10T06:40:54.813Z,0.20
2019-03-10T06:43:55.145Z,0.20
2019-03-10T06:46:55.577Z,0.10
2019-03-10T06:49:56.719Z,0.20
2019-03-10T06:52:57.342Z,0.03
2019-03-10T06:55:57.831Z,0.30
2019-03-10T06:58:58.733Z,0.20
2019-03-10T07:01:59.191Z,0.20
2019-03-10T07:04:59.633Z,0.60
2019-03-10T07:08:00.522Z,0.10
2019-03-10T07:11:01.178Z,0.23
2019-03-10T07:14:02.115Z,0.37
2019-03-10T07:17:02.538Z,0.40
2019-03-10T07:20:03.274Z,0.50
2019-03-10T07:23:05.987Z,0.60
2019-03-10T07:26:06.462Z,0.50
2019-03-10T07:29:26.154Z,0.40
2019-03-10T07:32:31.627Z,0.30
2019-03-10T07:35:34.197Z,0.30
2019-03-10T07:38:54.187Z,0.50
2019-03-10T07:41:59.527Z,0.57
2019-03-10T07:45:02.171Z,0.30
2019-03-10T07:48:22.029Z,0.30
2019-03-10T07:51:42.164Z,0.40
2019-03-10T07:54:44.131Z,0.40
2019-03-10T08:01:00.365Z,0.60
2019-03-10T08:04:02.910Z,0.60
2019-03-10T08:07:22.750Z,0.60
2019-03-10T08:10:28.506Z,0.80
2019-03-10T08:13:48.766Z,0.63
2019-03-10T08:17:09.090Z,0.60
2019-03-10T08:20:28.623Z,0.60
2019-03-10T08:23:52.228Z,0.50
2019-03-10T08:27:12.568Z,0.57
2019-03-10T08:30:32.734Z,0.70
2019-03-10T08:33:35.425Z,0.60
2019-03-10T08:36:40.886Z,0.60
2019-03-10T08:39:46.586Z,0.50
2019-03-10T08:42:49.742Z,0.60
2019-03-10T08:46:10.249Z,0.83
2019-03-10T08:52:26.426Z,0.60
2019-03-10T08:55:31.525Z,0.73
2019-03-10T08:58:37.261Z,0.40
2019-03-10T09:01:56.865Z,0.50
2019-03-10T09:05:20.073Z,0.67
2019-03-10T09:08:40.527Z,0.50
2019-03-10T09:15:12.951Z,0.50
2019-03-10T09:18:33.198Z,0.53
2019-03-10T09:21:37.932Z,0.67
2019-03-10T09:24:45.649Z,0.47
2019-03-10T09:38:00.878Z,0.33
2019-03-10T09:41:06.468Z,0.20
2019-03-10T09:44:08.847Z,0.27
2019-03-10T09:47:28.767Z,0.40
2019-03-10T09:50:49.142Z,0.60
2019-03-10T09:53:51.798Z,0.50
2019-03-10T09:56:57.288Z,0.60
2019-03-10T10:03:44.853Z,0.47
2019-03-10T10:10:17.984Z,0.70
2019-03-10T10:13:41.601Z,0.40
2019-03-10T10:16:44.074Z,0.50
2019-03-10T10:19:46.285Z,0.60
2019-03-10T10:23:05.762Z,0.60
2019-03-10T10:26:29.446Z,0.70
2019-03-10T10:29:49.378Z,0.80
2019-03-10T10:32:54.568Z,0.63
2019-03-10T10:35:56.862Z,0.90
2019-03-10T10:38:59.021Z,0.70
2019-03-10T10:42:19.243Z,0.77
2019-03-10T10:52:19.444Z,0.50
2019-03-10T10:55:42.484Z,0.57
2019-03-10T10:58:48.078Z,0.60
2019-03-10T11:01:53.566Z,0.40
2019-03-10T11:04:55.697Z,0.40
2019-03-10T11:11:12.386Z,0.30
2019-03-10T11:14:32.443Z,0.50
2019-03-10T11:17:35.039Z,0.40
2019-03-10T11:20:40.616Z,0.20
2019-03-10T11:23:45.459Z,0.20
2019-03-10T11:27:05.759Z,0.20
2019-03-10T11:30:25.890Z,0.35
2019-03-10T11:33:31.907Z,0.13
2019-03-10T11:36:37.133Z,0.40
2019-03-10T11:43:12.813Z,0.40
2019-03-10T11:46:33.547Z,0.30
2019-03-10T11:53:18.295Z,0.50
2019-03-10T11:59:27.705Z,0.15
2019-03-10T12:02:33.183Z,0.40
2019-03-10T12:05:53.313Z,0.23
2019-03-10T12:09:00.146Z,0.30
2019-03-10T12:12:01.787Z,0.30
2019-03-10T12:15:02.981Z,0.17
2019-03-10T12:18:04.722Z,0.40
2019-03-10T12:21:06.345Z,0.30
2019-03-10T12:24:08.026Z,0.30
2019-03-10T12:27:08.937Z,0.53
2019-03-10T12:30:10.721Z,0.30
2019-03-10T12:33:11.949Z,0.30
2019-03-10T12:36:13.311Z,0.20
2019-03-10T12:39:17.037Z,0.20
2019-03-10T12:42:18.509Z,0.20
2019-03-10T12:45:19.914Z,0.40
2019-03-10T12:48:21.402Z,0.20
2019-03-10T12:51:23.206Z,0.50
2019-03-10T12:54:24.719Z,0.40
2019-03-10T12:57:26.417Z,0.30
2019-03-10T13:00:27.301Z,0.30
2019-03-10T13:03:27.821Z,0.20
2019-03-10T13:06:28.795Z,0.30
2019-03-10T13:09:29.238Z,0.20
2019-03-10T13:12:31.925Z,0.20
2019-03-10T13:15:33.290Z,0.37
2019-03-10T13:18:35.004Z,0.35
2019-03-10T13:21:36.573Z,0.23
2019-03-10T13:24:37.726Z,0.42
2019-03-10T13:30:22.514Z,0.23
2019-03-10T13:33:23.169Z,0.27
2019-03-10T13:36:23.500Z,0.30
2019-03-10T13:39:23.850Z,0.40
2019-03-10T13:42:24.437Z,0.47
2019-03-10T13:45:24.898Z,0.53
2019-03-10T13:48:26.000Z,0.60
2019-03-10T13:51:27.635Z,0.60
2019-03-10T13:54:28.946Z,0.53
2019-03-10T13:57:29.824Z,0.70
2019-03-10T14:00:31.355Z,1.15
2019-03-10T14:03:32.868Z,1.00
2019-03-10T14:06:34.802Z,0.88
2019-03-10T14:09:36.061Z,1.00
2019-03-10T14:12:37.900Z,1.10
2019-03-10T14:15:39.690Z,1.00
2019-03-10T14:18:41.171Z,1.00
2019-03-10T14:21:42.978Z,1.20
2019-03-10T14:24:44.382Z,1.00
2019-03-10T14:27:45.434Z,1.07
2019-03-10T14:30:46.696Z,1.47
2019-03-10T14:33:47.467Z,1.00
2019-03-10T14:36:47.882Z,1.00
2019-03-10T14:39:48.799Z,1.00
2019-03-10T14:42:49.947Z,1.10
2019-03-10T14:45:50.407Z,1.73
2019-03-10T14:48:50.790Z,1.00
2019-03-10T14:51:51.494Z,0.90
2019-03-10T14:54:52.011Z,0.87
2019-03-10T14:57:52.502Z,0.80
2019-03-10T15:00:53.175Z,1.00
2019-03-10T15:03:54.873Z,1.00
2019-03-10T15:06:56.039Z,1.20
2019-03-10T15:09:45.186Z,0.98
2019-03-10T15:12:53.740Z,1.30
2019-03-10T15:15:55.592Z,1.52
2019-03-10T15:18:57.283Z,1.40
2019-03-10T15:21:59.026Z,1.30
2019-03-10T15:25:00.343Z,1.10
2019-03-10T15:28:01.681Z,1.10
2019-03-10T15:31:03.173Z,1.22
2019-03-10T15:34:04.695Z,1.30
2019-03-10T15:37:06.130Z,1.40
2019-03-10T15:40:07.707Z,1.30
2019-03-10T15:43:08.520Z,1.27
2019-03-10T15:46:09.426Z,1.50
2019-03-10T15:49:11.105Z,1.30
2019-03-10T15:52:16.214Z,1.37
2019-03-10T15:55:17.395Z,1.20
2019-03-10T15:58:19.115Z,1.07
2019-03-10T16:01:20.450Z,1.32
2019-03-10T16:04:21.339Z,1.50
2019-03-10T16:07:21.891Z,1.50
2019-03-10T16:10:22.538Z,1.43
2019-03-10T16:16:38.002Z,1.20
2019-03-10T16:19:38.981Z,1.60
2019-03-10T16:22:40.279Z,1.20
2019-03-10T16:25:40.857Z,1.60
2019-03-10T16:28:41.260Z,1.37
2019-03-10T16:31:42.082Z,1.50
2019-03-10T16:34:42.766Z,1.70
2019-03-10T16:37:43.349Z,1.73
2019-03-10T16:40:43.962Z,1.43
2019-03-10T16:43:44.466Z,1.47
2019-03-10T16:46:45.067Z,1.47
2019-03-10T16:49:45.758Z,1.80
2019-03-10T16:52:46.578Z,1.60
2019-03-10T16:55:47.084Z,1.90
2019-03-10T16:58:47.618Z,1.83
2019-03-10T17:01:48.241Z,1.63
2019-03-10T17:04:48.962Z,1.70
2019-03-10T17:07:49.369Z,1.90
2019-03-10T17:10:50.226Z,2.13
2019-03-10T17:13:51.068Z,2.70
2019-03-10T17:16:52.298Z,2.10
2019-03-10T17:19:54.750Z,2.77
2019-03-10T17:22:55.208Z,2.43
2019-03-10T17:25:56.391Z,2.23
2019-03-10T17:28:56.910Z,2.00
2019-03-10T17:31:58.143Z,2.57
2019-03-10T17:34:59.026Z,2.83
2019-03-10T17:37:59.781Z,2.53
2019-03-10T17:41:00.907Z,2.57
2019-03-10T17:44:01.645Z,2.67
2019-03-10T17:47:02.091Z,2.00
2019-03-10T17:50:02.847Z,2.40
2019-03-10T17:53:03.243Z,2.20
2019-03-10T17:56:03.905Z,2.27
2019-03-10T17:59:04.556Z,2.20
2019-03-10T18:02:08.994Z,2.00
2019-03-10T18:05:07.443Z,2.10
2019-03-10T18:07:56.058Z,2.40
2019-03-10T18:11:04.052Z,2.03
2019-03-10T18:14:05.259Z,2.87
2019-03-10T18:17:05.834Z,1.90
2019-03-10T18:20:06.582Z,1.97
2019-03-10T18:23:07.041Z,2.77
2019-03-10T18:26:07.644Z,2.20
2019-03-10T18:28:56.414Z,2.10
2019-03-10T18:32:04.338Z,2.20
2019-03-10T18:35:05.126Z,2.40
2019-03-10T18:38:05.790Z,2.00
2019-03-10T18:41:06.397Z,1.97
2019-03-10T18:44:06.746Z,1.93
2019-03-10T18:47:07.578Z,1.63
2019-03-10T18:50:07.911Z,1.70
2019-03-10T18:53:08.488Z,1.70
2019-03-10T18:56:09.828Z,2.00
2019-03-10T18:59:11.111Z,2.00
2019-03-10T19:02:11.530Z,2.03
2019-03-10T19:05:12.399Z,2.13
2019-03-10T19:08:20.315Z,2.10
2019-03-10T19:11:28.188Z,1.47
2019-03-10T19:14:28.496Z,2.03
2019-03-10T19:17:28.953Z,1.37
2019-03-10T19:20:29.197Z,1.80
2019-03-10T19:23:29.539Z,1.30
2019-03-10T19:26:30.507Z,1.43
2019-03-10T19:29:31.370Z,1.27
2019-03-10T19:32:32.029Z,1.47
2019-03-10T19:35:32.759Z,1.67
2019-03-10T19:38:33.308Z,1.67
2019-03-10T19:41:33.980Z,1.73
2019-03-10T19:44:34.987Z,2.13
2019-03-10T19:47:35.722Z,1.50
2019-03-10T19:50:36.958Z,1.87
2019-03-10T19:53:37.592Z,1.90
2019-03-10T19:56:38.168Z,1.83
2019-03-10T19:59:38.954Z,2.07
2019-03-10T20:02:39.663Z,1.53
2019-03-10T20:05:40.011Z,1.90
2019-03-10T20:08:41.222Z,1.97
2019-03-10T20:11:41.608Z,2.10
2019-03-10T20:14:42.482Z,1.93
2019-03-10T20:17:42.998Z,1.80
2019-03-10T20:20:43.876Z,1.93
2019-03-10T20:23:44.334Z,2.00
2019-03-10T20:26:44.777Z,2.20
2019-03-10T20:29:45.710Z,1.90
2019-03-10T20:32:46.407Z,2.57
2019-03-10T20:35:47.415Z,2.10
2019-03-10T20:38:48.531Z,2.10
2019-03-10T20:41:49.257Z,1.87
2019-03-10T20:44:49.598Z,2.20
2019-03-10T20:47:50.284Z,1.83
2019-03-10T20:50:50.986Z,1.90
2019-03-10T20:53:51.716Z,1.80
2019-03-10T20:56:52.401Z,2.27
2019-03-10T21:00:00.590Z,2.10
2019-03-10T21:02:54.835Z,2.60
2019-03-10T21:05:55.538Z,1.77
2019-03-10T21:08:56.142Z,2.10
2019-03-10T21:11:56.844Z,1.87
2019-03-10T21:14:57.148Z,1.90
2019-03-10T21:17:57.494Z,2.50
2019-03-10T21:20:57.914Z,2.20
2019-03-10T21:23:58.701Z,2.50
2019-03-10T21:26:59.516Z,2.33
2019-03-10T21:30:00.110Z,2.30
2019-03-10T21:33:00.826Z,2.50
2019-03-10T21:36:01.781Z,2.73
2019-03-10T21:39:02.273Z,2.20
2019-03-10T21:42:02.783Z,2.60
2019-03-10T21:45:03.053Z,2.77
2019-03-10T21:48:03.453Z,2.03
2019-03-10T21:51:04.658Z,2.60
2019-03-10T21:54:05.643Z,2.50
2019-03-10T21:57:06.257Z,2.30
2019-03-10T22:00:06.849Z,2.00
2019-03-10T22:03:07.149Z,3.00
2019-03-10T22:06:07.478Z,3.00
2019-03-10T22:09:07.805Z,2.00
2019-03-10T22:12:08.658Z,2.43
2019-03-10T22:15:09.932Z,2.87
2019-03-10T22:18:11.002Z,2.17
2019-03-10T22:21:11.626Z,3.20
2019-03-10T22:24:12.225Z,2.70
2019-03-10T22:27:13.035Z,3.00
2019-03-10T22:30:13.674Z,3.07
2019-03-10T22:33:14.233Z,2.70
2019-03-10T22:36:14.810Z,2.20
2019-03-10T22:39:15.213Z,2.50
2019-03-10T22:42:15.609Z,2.10
2019-03-10T22:45:15.963Z,2.57
2019-03-10T22:48:16.617Z,2.17
2019-03-10T22:51:17.236Z,2.57
2019-03-10T22:54:17.785Z,2.93
2019-03-10T22:57:18.293Z,2.20
2019-03-10T23:00:18.717Z,2.63
2019-03-10T23:03:19.200Z,2.37
2019-03-10T23:06:20.038Z,2.00
2019-03-10T23:09:20.639Z,2.37
2019-03-10T23:12:20.922Z,2.10
2019-03-10T23:15:21.614Z,2.47
2019-03-10T23:18:22.132Z,1.97
2019-03-10T23:21:22.671Z,2.40
2019-03-10T23:24:23.072Z,2.60
2019-03-10T23:27:23.517Z,2.10
2019-03-10T23:30:24.368Z,2.07
2019-03-10T23:33:24.684Z,2.17
2019-03-10T23:36:25.107Z,2.27
2019-03-10T23:39:25.622Z,2.07
2019-03-10T23:42:26.008Z,2.20
2019-03-10T23:45:26.735Z,2.03
2019-03-10T23:48:27.331Z,2.30
2019-03-10T23:51:27.914Z,1.77
2019-03-10T23:54:28.318Z,1.77
2019-03-10T23:57:29.058Z,2.10
